Time;durP1;ratioP1;P1;durP2;ratioP2;P2;SDS_P1;SDS_P2;PMS_P1;PMS_P2;Temp;Humidity;BMP_temperature;BMP_pressure;BME280_temperature;BME280_humidity;BME280_pressure;Samples;Min_cycle;Max_cycle;Signal;HPM_P1;HPM_P2
2023/12/01 00:00:09;;;;;;;39.87;19.13;;;1.00;99.90;;;;;;5073229;28;20063;-77
2023/12/01 00:02:34;;;;;;;34.67;19.17;;;1.00;99.90;;;;;;5074573;28;20155;-75
2023/12/01 00:05:00;;;;;;;37.80;20.00;;;1.00;99.90;;;;;;5073537;28;20124;-75
2023/12/01 00:07:26;;;;;;;39.10;19.47;;;1.00;99.90;;;;;;5074201;28;20049;-74
2023/12/01 00:09:52;;;;;;;37.37;18.90;;;1.00;99.90;;;;;;5074018;28;20052;-74
2023/12/01 00:12:18;;;;;;;39.20;19.30;;;1.00;99.90;;;;;;5073520;28;20055;-75
2023/12/01 00:14:43;;;;;;;43.53;20.10;;;1.00;99.90;;;;;;5072417;28;20057;-75
2023/12/01 00:17:09;;;;;;;36.93;19.40;;;1.00;99.90;;;;;;5071245;28;20090;-77
2023/12/01 00:19:35;;;;;;;38.13;19.23;;;1.00;99.90;;;;;;5071973;28;20051;-75
2023/12/01 00:22:00;;;;;;;40.03;19.80;;;1.00;99.90;;;;;;5072118;28;20041;-75
2023/12/01 00:24:26;;;;;;;37.00;19.57;;;1.00;99.90;;;;;;5070990;28;20071;-75
2023/12/01 00:26:52;;;;;;;39.70;19.50;;;1.00;99.90;;;;;;5072311;28;20091;-75
2023/12/01 00:29:17;;;;;;;35.80;17.60;;;1.00;99.90;;;;;;5072157;28;20525;-75
2023/12/01 00:31:43;;;;;;;37.10;19.03;;;1.00;99.90;;;;;;5073530;28;20072;-74
2023/12/01 00:34:09;;;;;;;47.37;20.40;;;1.00;99.90;;;;;;5073990;28;20141;-74
2023/12/01 00:36:34;;;;;;;41.57;20.23;;;1.00;99.90;;;;;;5073596;28;20477;-74
2023/12/01 00:39:00;;;;;;;41.60;19.40;;;1.00;99.90;;;;;;5073515;28;20045;-74
2023/12/01 00:41:26;;;;;;;39.80;19.47;;;1.00;99.90;;;;;;5072821;28;20049;-74
2023/12/01 00:43:51;;;;;;;36.50;18.63;;;1.00;99.90;;;;;;5073782;28;20051;-74
2023/12/01 00:46:17;;;;;;;37.47;18.30;;;1.00;99.90;;;;;;5072470;28;20048;-75
2023/12/01 00:48:43;;;;;;;39.23;18.00;;;1.00;99.90;;;;;;5073648;28;20048;-74
2023/12/01 00:51:17;;;;;;;35.70;18.30;;;0.90;99.90;;;;;;5073303;28;20044;-74
2023/12/01 00:53:43;;;;;;;36.47;17.40;;;1.00;99.90;;;;;;5073271;28;20492;-74
2023/12/01 00:56:13;;;;;;;36.70;16.92;;;1.00;99.90;;;;;;5073431;28;20044;-74
2023/12/01 00:58:39;;;;;;;39.30;19.02;;;1.00;99.90;;;;;;5071530;28;20113;-74
2023/12/01 01:01:06;;;;;;;37.97;18.00;;;1.00;99.90;;;;;;5072399;28;20044;-74
2023/12/01 01:03:32;;;;;;;31.23;16.05;;;1.00;99.90;;;;;;5072792;28;20506;-74
2023/12/01 01:05:58;;;;;;;34.17;16.80;;;1.00;99.90;;;;;;5072248;28;20057;-74
2023/12/01 01:08:24;;;;;;;36.37;17.33;;;0.90;99.90;;;;;;5072001;28;20098;-74
2023/12/01 01:10:49;;;;;;;35.57;18.33;;;1.00;99.90;;;;;;5072191;28;20047;-74
2023/12/01 01:13:15;;;;;;;35.90;18.43;;;1.00;99.90;;;;;;5072901;28;20118;-74
2023/12/01 01:15:41;;;;;;;37.77;18.07;;;0.90;99.90;;;;;;5072996;28;20055;-74
2023/12/01 01:18:07;;;;;;;35.60;16.77;;;0.80;99.90;;;;;;5072850;28;20052;-74
2023/12/01 01:20:32;;;;;;;33.97;17.80;;;0.90;99.90;;;;;;5072856;28;20036;-74
2023/12/01 01:22:58;;;;;;;30.43;16.73;;;0.80;99.90;;;;;;5073263;28;20488;-74
2023/12/01 01:25:24;;;;;;;34.30;17.60;;;0.80;99.90;;;;;;5072836;28;20505;-74
2023/12/01 01:27:49;;;;;;;33.97;17.23;;;0.90;99.90;;;;;;5073118;28;20051;-74
2023/12/01 01:30:16;;;;;;;35.57;17.60;;;0.90;99.90;;;;;;5055297;28;20051;-74
2023/12/01 01:32:41;;;;;;;37.05;18.95;;;0.70;99.90;;;;;;5072788;28;20056;-74
2023/12/01 01:35:08;;;;;;;38.17;19.13;;;0.70;99.90;;;;;;5072061;28;20049;-74
2023/12/01 01:37:33;;;;;;;33.38;17.27;;;0.70;99.90;;;;;;5072671;28;20045;-74
2023/12/01 01:39:59;;;;;;;31.80;16.97;;;0.70;99.90;;;;;;5072664;28;20059;-74
2023/12/01 01:42:25;;;;;;;30.97;16.80;;;0.60;99.90;;;;;;5072351;28;20090;-74
2023/12/01 01:44:50;;;;;;;33.67;17.77;;;0.60;99.90;;;;;;5072270;28;20056;-74
2023/12/01 01:47:16;;;;;;;35.53;18.23;;;0.60;99.90;;;;;;5072938;28;20414;-74
2023/12/01 01:49:42;;;;;;;36.90;17.75;;;0.60;99.90;;;;;;5072653;28;20119;-74
2023/12/01 01:52:11;;;;;;;41.25;19.33;;;0.70;99.90;;;;;;5072801;28;20063;-74
2023/12/01 01:54:38;;;;;;;36.50;17.92;;;0.70;99.90;;;;;;5072541;28;20074;-74
2023/12/01 01:57:04;;;;;;;34.17;17.40;;;0.70;99.90;;;;;;5072552;28;20484;-74
2023/12/01 01:59:30;;;;;;;32.13;17.33;;;0.70;99.90;;;;;;5072499;28;20075;-74
2023/12/01 02:01:57;;;;;;;33.37;17.33;;;0.70;99.90;;;;;;5071520;28;20036;-74
2023/12/01 02:04:23;;;;;;;34.42;18.50;;;0.80;99.90;;;;;;5071683;28;20128;-74
2023/12/01 02:06:49;;;;;;;31.98;17.23;;;0.70;99.90;;;;;;5071561;28;20051;-74
2023/12/01 02:09:15;;;;;;;33.50;16.77;;;0.60;99.90;;;;;;5071706;28;20040;-74
2023/12/01 02:11:42;;;;;;;30.67;16.67;;;0.70;99.90;;;;;;5071874;28;20044;-75
2023/12/01 02:14:08;;;;;;;28.38;14.77;;;0.60;99.90;;;;;;5070528;28;20193;-75
2023/12/01 02:16:34;;;;;;;31.00;15.90;;;0.50;99.90;;;;;;5070232;28;20102;-74
2023/12/01 02:18:59;;;;;;;29.30;15.83;;;0.50;99.90;;;;;;5070460;28;20132;-75
2023/12/01 02:21:26;;;;;;;30.93;16.03;;;0.40;99.90;;;;;;5070756;28;20142;-74
2023/12/01 02:23:55;;;;;;;27.27;14.32;;;0.50;99.90;;;;;;5069814;28;20076;-75
2023/12/01 02:26:22;;;;;;;29.10;15.07;;;0.40;99.90;;;;;;5070717;28;20681;-75
2023/12/01 02:28:49;;;;;;;31.88;16.50;;;0.40;99.90;;;;;;5070695;28;20053;-74
2023/12/01 02:31:14;;;;;;;27.48;15.32;;;0.40;99.90;;;;;;5072503;28;20041;-74
2023/12/01 02:33:40;;;;;;;31.53;16.67;;;0.30;99.90;;;;;;5071213;28;20094;-74
2023/12/01 02:36:08;;;;;;;29.43;16.03;;;0.40;99.90;;;;;;5072455;28;20087;-74
2023/12/01 02:38:34;;;;;;;29.10;16.23;;;0.40;99.90;;;;;;5072235;28;20101;-74
2023/12/01 02:41:02;;;;;;;28.30;16.08;;;0.30;99.90;;;;;;5072273;28;20051;-74
2023/12/01 02:43:28;;;;;;;30.42;16.17;;;0.30;99.90;;;;;;5072248;28;20127;-74
2023/12/01 02:45:53;;;;;;;30.93;16.57;;;0.30;99.90;;;;;;5071872;28;20083;-75
2023/12/01 02:48:19;;;;;;;31.00;18.07;;;0.30;99.90;;;;;;5072324;28;20080;-75
2023/12/01 02:50:45;;;;;;;35.70;18.00;;;0.30;99.90;;;;;;5072004;28;20471;-74
2023/12/01 02:53:11;;;;;;;31.67;16.93;;;0.30;99.90;;;;;;5072176;28;20059;-74
2023/12/01 02:55:36;;;;;;;32.67;17.33;;;0.30;99.90;;;;;;5074555;28;20071;-75
2023/12/01 02:58:02;;;;;;;32.80;17.70;;;0.30;99.90;;;;;;5076169;28;20401;-74
2023/12/01 03:00:29;;;;;;;30.58;16.40;;;0.30;99.90;;;;;;5075824;28;20060;-74
2023/12/01 03:02:54;;;;;;;31.08;16.88;;;0.30;99.90;;;;;;5075369;28;20492;-74
2023/12/01 03:05:21;;;;;;;32.57;17.40;;;0.20;99.90;;;;;;5075620;28;20048;-74
2023/12/01 03:07:48;;;;;;;28.52;15.52;;;0.20;99.90;;;;;;5075336;28;20057;-74
2023/12/01 03:10:14;;;;;;;29.00;17.02;;;0.10;99.90;;;;;;5075760;28;20045;-74
2023/12/01 03:12:42;;;;;;;31.63;16.85;;;0.10;99.90;;;;;;5075061;28;20488;-74
2023/12/01 03:15:19;;;;;;;27.42;16.42;;;0.10;99.90;;;;;;5075523;28;20445;-74
2023/12/01 03:17:46;;;;;;;31.02;17.50;;;0.10;99.90;;;;;;5075294;28;20040;-75
2023/12/01 03:20:14;;;;;;;30.13;17.70;;;0.00;99.90;;;;;;5075299;28;20459;-74
2023/12/01 03:22:41;;;;;;;29.30;17.85;;;0.10;99.90;;;;;;5075154;28;20141;-74
2023/12/01 03:25:11;;;;;;;30.50;17.92;;;0.00;99.90;;;;;;5074267;28;20401;-74
2023/12/01 03:27:42;;;;;;;31.65;17.67;;;0.00;99.90;;;;;;5074899;28;20048;-75
2023/12/01 03:30:13;;;;;;;33.22;17.85;;;-0.10;99.90;;;;;;5074073;28;20543;-74
2023/12/01 03:32:53;;;;;;;36.83;19.42;;;0.00;99.90;;;;;;5074935;28;20055;-74
2023/12/01 03:35:20;;;;;;;33.55;19.70;;;0.00;99.90;;;;;;5074244;28;20127;-74
2023/12/01 03:37:47;;;;;;;31.13;18.15;;;-0.10;99.90;;;;;;5074776;28;20052;-74
2023/12/01 03:40:14;;;;;;;31.27;18.50;;;-0.10;99.90;;;;;;5074939;28;20071;-74
2023/12/01 03:42:45;;;;;;;32.13;18.58;;;-0.20;99.90;;;;;;5074702;28;20052;-74
2023/12/01 03:45:12;;;;;;;31.45;18.42;;;-0.10;99.90;;;;;;5073958;28;20084;-74
2023/12/01 03:47:43;;;;;;;29.60;18.70;;;-0.20;99.90;;;;;;5074683;28;20044;-75
2023/12/01 03:50:12;;;;;;;31.50;18.80;;;-0.30;99.90;;;;;;5074933;28;20070;-74
2023/12/01 03:52:39;;;;;;;32.30;19.17;;;-0.30;99.90;;;;;;5074499;28;20123;-75
2023/12/01 03:55:06;;;;;;;29.58;18.65;;;-0.30;99.90;;;;;;5074687;28;20063;-75
2023/12/01 03:57:32;;;;;;;29.67;18.35;;;-0.30;99.90;;;;;;5073971;28;20064;-75
2023/12/01 03:59:57;;;;;;;29.07;18.13;;;-0.40;99.90;;;;;;5073377;28;20040;-75
2023/12/01 04:02:23;;;;;;;33.67;20.30;;;-0.40;99.90;;;;;;5074503;28;20544;-75
2023/12/01 04:04:52;;;;;;;32.93;20.17;;;-0.50;99.90;;;;;;5074195;28;20048;-75
2023/12/01 04:07:17;;;;;;;32.35;19.60;;;-0.50;99.90;;;;;;5074514;28;20048;-75
2023/12/01 04:09:43;;;;;;;33.43;19.93;;;-0.50;99.90;;;;;;5072902;28;20056;-75
2023/12/01 04:12:09;;;;;;;33.17;20.97;;;-0.60;99.90;;;;;;5074613;28;20072;-75
2023/12/01 04:14:35;;;;;;;34.30;20.27;;;-0.60;99.90;;;;;;5074393;28;20492;-75
2023/12/01 04:17:08;;;;;;;38.40;22.33;;;-0.60;99.90;;;;;;5074025;28;20044;-75
2023/12/01 04:19:36;;;;;;;40.90;21.65;;;-0.70;99.90;;;;;;5074126;28;20598;-75
2023/12/01 04:22:04;;;;;;;37.80;21.50;;;-0.70;99.90;;;;;;5072692;28;20048;-75
2023/12/01 04:24:33;;;;;;;45.83;23.50;;;-0.70;99.90;;;;;;5073755;28;20496;-75
2023/12/01 04:27:02;;;;;;;34.20;19.95;;;-0.70;99.90;;;;;;5073782;28;20105;-75
2023/12/01 04:29:29;;;;;;;38.22;21.17;;;-0.70;99.90;;;;;;5073242;28;20133;-75
2023/12/01 04:31:56;;;;;;;34.63;20.50;;;-0.70;99.90;;;;;;5072641;28;20040;-75
2023/12/01 04:34:22;;;;;;;34.13;21.13;;;-0.70;99.90;;;;;;5073951;28;20074;-75
2023/12/01 04:36:50;;;;;;;41.50;21.90;;;-0.80;99.90;;;;;;5055651;28;20477;-75
2023/12/01 04:39:15;;;;;;;33.03;19.98;;;-0.80;99.90;;;;;;5072633;28;20036;-75
2023/12/01 04:41:41;;;;;;;37.63;21.60;;;-0.70;99.90;;;;;;5073706;28;20043;-75
2023/12/01 04:44:07;;;;;;;40.70;22.27;;;-0.70;99.90;;;;;;5072500;28;20423;-75
2023/12/01 04:46:32;;;;;;;36.47;19.27;;;-0.70;99.90;;;;;;5072643;28;20048;-75
2023/12/01 04:48:58;;;;;;;39.10;21.73;;;-0.70;99.90;;;;;;5072233;28;20513;-75
2023/12/01 04:51:24;;;;;;;33.40;19.23;;;-0.70;99.90;;;;;;5072477;28;20131;-75
2023/12/01 04:53:50;;;;;;;41.37;21.70;;;-0.70;99.90;;;;;;5073353;28;20059;-75
2023/12/01 04:56:15;;;;;;;37.73;20.40;;;-0.70;99.90;;;;;;5073533;28;20274;-75
2023/12/01 04:58:41;;;;;;;38.53;20.60;;;-0.60;99.90;;;;;;5073607;28;20056;-75
2023/12/01 05:01:07;;;;;;;36.37;20.13;;;-0.80;99.90;;;;;;5073148;28;20546;-75
2023/12/01 05:03:33;;;;;;;36.08;19.98;;;-0.80;99.90;;;;;;5089333;28;20060;-75
2023/12/01 05:05:59;;;;;;;37.23;20.97;;;-0.80;99.90;;;;;;5071483;28;20408;-75
2023/12/01 05:08:27;;;;;;;34.87;20.10;;;-0.90;99.90;;;;;;5072491;28;20095;-75
2023/12/01 05:10:55;;;;;;;34.95;20.65;;;-0.80;99.90;;;;;;5073055;28;20084;-75
2023/12/01 05:13:21;;;;;;;39.63;21.80;;;-0.70;99.90;;;;;;5073400;28;20049;-75
2023/12/01 05:15:47;;;;;;;41.80;22.80;;;-0.70;99.90;;;;;;5072569;28;20492;-76
2023/12/01 05:18:13;;;;;;;38.07;20.17;;;-0.60;99.90;;;;;;5073142;28;20051;-75
2023/12/01 05:20:40;;;;;;;33.85;18.67;;;-0.70;99.90;;;;;;5071925;28;20040;-75
2023/12/01 05:23:10;;;;;;;34.60;19.00;;;-0.70;99.90;;;;;;5072988;28;20064;-76
2023/12/01 05:25:38;;;;;;;36.67;20.20;;;-0.80;99.90;;;;;;5072755;28;20045;-75
2023/12/01 05:28:08;;;;;;;43.90;20.88;;;-0.90;99.90;;;;;;5072840;28;20465;-76
2023/12/01 05:30:36;;;;;;;36.15;20.75;;;-1.00;99.90;;;;;;5073222;28;20055;-75
2023/12/01 05:33:04;;;;;;;38.22;20.35;;;-1.00;99.90;;;;;;5072742;28;20080;-75
2023/12/01 05:35:31;;;;;;;41.58;20.73;;;-1.00;99.90;;;;;;5072869;28;20040;-75
2023/12/01 05:37:58;;;;;;;41.03;20.75;;;-1.00;99.90;;;;;;5072769;28;20072;-76
2023/12/01 05:40:29;;;;;;;35.75;19.58;;;-0.90;99.90;;;;;;5073039;28;20052;-75
2023/12/01 05:42:57;;;;;;;43.88;21.65;;;-1.00;99.90;;;;;;5072727;28;20082;-76
2023/12/01 05:45:24;;;;;;;33.13;19.25;;;-0.90;99.90;;;;;;5071752;28;20060;-76
2023/12/01 05:47:54;;;;;;;39.45;19.30;;;-1.00;99.90;;;;;;5072626;28;20048;-77
2023/12/01 05:50:27;;;;;;;35.42;19.38;;;-1.00;99.90;;;;;;5072894;28;20053;-75
2023/12/01 05:52:56;;;;;;;32.50;19.40;;;-1.00;99.90;;;;;;5072787;28;20040;-76
2023/12/01 05:55:35;;;;;;;34.58;19.85;;;-1.00;99.90;;;;;;5072881;28;20052;-76
2023/12/01 05:58:09;;;;;;;38.63;21.00;;;-0.90;99.90;;;;;;5072548;28;20106;-76
2023/12/01 06:00:35;;;;;;;38.50;20.77;;;-0.90;99.90;;;;;;5072873;28;20118;-76
2023/12/01 06:03:09;;;;;;;33.27;19.63;;;-0.80;99.90;;;;;;5071530;28;20472;-76
2023/12/01 06:05:36;;;;;;;40.97;20.20;;;-0.80;99.90;;;;;;5072158;28;20127;-76
2023/12/01 06:08:04;;;;;;;39.47;20.63;;;-0.90;99.90;;;;;;5072507;28;20052;-76
2023/12/01 06:10:32;;;;;;;36.55;19.95;;;-0.90;99.90;;;;;;5071835;28;20048;-76
2023/12/01 06:12:58;;;;;;;34.08;18.63;;;-0.90;99.90;;;;;;5072211;28;20048;-76
2023/12/01 06:15:29;;;;;;;38.88;20.63;;;-0.90;99.90;;;;;;5072706;28;20054;-76
2023/12/01 06:17:56;;;;;;;32.55;19.33;;;-0.80;99.90;;;;;;5072114;28;20506;-76
2023/12/01 06:20:22;;;;;;;33.85;19.58;;;-0.80;99.90;;;;;;5072394;28;20051;-76
2023/12/01 06:22:58;;;;;;;38.17;19.42;;;-0.80;99.90;;;;;;5072010;28;20485;-75
2023/12/01 06:25:28;;;;;;;40.33;20.10;;;-0.90;99.90;;;;;;5072724;28;20045;-76
2023/12/01 06:27:58;;;;;;;32.03;18.20;;;-0.90;99.90;;;;;;5071651;28;20048;-79
2023/12/01 06:30:26;;;;;;;33.28;18.58;;;-0.80;99.90;;;;;;5076107;28;20098;-76
2023/12/01 06:32:52;;;;;;;33.20;18.30;;;-0.80;99.90;;;;;;5076381;28;20048;-75
2023/12/01 06:35:19;;;;;;;33.77;18.40;;;-0.70;99.90;;;;;;5075997;28;20135;-76
2023/12/01 06:37:46;;;;;;;36.35;19.67;;;-0.90;99.90;;;;;;5076221;28;20090;-75
2023/12/01 06:40:15;;;;;;;35.75;18.23;;;-0.80;99.90;;;;;;5075882;28;20044;-76
2023/12/01 06:42:48;;;;;;;34.05;19.13;;;-0.90;99.90;;;;;;5074842;28;20504;-75
2023/12/01 06:45:16;;;;;;;30.77;18.45;;;-0.90;99.90;;;;;;5075863;28;20048;-76
2023/12/01 06:47:46;;;;;;;38.08;21.77;;;-0.90;99.90;;;;;;5076002;28;20048;-76
2023/12/01 06:50:15;;;;;;;34.38;19.33;;;-0.80;99.90;;;;;;5075684;28;20049;-76
2023/12/01 06:52:43;;;;;;;33.25;19.02;;;-0.90;99.90;;;;;;5075775;28;20415;-75
2023/12/01 06:55:09;;;;;;;38.10;19.67;;;-1.00;99.90;;;;;;5075547;28;20052;-76
2023/12/01 06:57:40;;;;;;;37.60;20.05;;;-1.00;99.90;;;;;;5074726;28;20048;-76
2023/12/01 07:02:57;;;;;;;32.20;18.67;;;-1.00;99.90;;;;;;5075837;28;20480;-75
2023/12/01 07:05:27;;;;;;;35.78;20.67;;;-1.00;99.90;;;;;;5075734;28;20048;-76
2023/12/01 07:07:54;;;;;;;35.65;20.45;;;-1.00;99.90;;;;;;5075720;28;20048;-76
2023/12/01 07:10:23;;;;;;;36.22;19.27;;;-1.00;99.90;;;;;;5075396;28;20066;-76
2023/12/01 07:12:49;;;;;;;33.45;20.13;;;-1.00;99.90;;;;;;5075591;28;20081;-76
2023/12/01 07:15:20;;;;;;;35.25;19.88;;;-1.00;99.90;;;;;;5075265;28;20084;-76
2023/12/01 07:17:51;;;;;;;34.72;19.38;;;-1.00;99.90;;;;;;5075677;28;20045;-76
2023/12/01 07:20:18;;;;;;;29.92;18.90;;;-1.00;99.90;;;;;;5075301;28;20053;-76
2023/12/01 07:22:49;;;;;;;34.75;19.73;;;-1.00;99.90;;;;;;5075214;28;20558;-76
2023/12/01 07:25:22;;;;;;;67.10;29.70;;;-1.00;99.90;;;;;;5075236;28;20123;-75
2023/12/01 07:27:56;;;;;;;52.38;26.38;;;-1.00;99.90;;;;;;5075500;28;20056;-75
2023/12/01 07:30:22;;;;;;;44.55;23.25;;;-1.00;99.90;;;;;;5075125;28;20101;-76
2023/12/01 07:32:49;;;;;;;36.63;20.27;;;-1.10;99.90;;;;;;5074222;28;20101;-75
2023/12/01 07:35:16;;;;;;;35.08;19.15;;;-1.10;99.90;;;;;;5073930;28;20102;-75
2023/12/01 07:37:46;;;;;;;39.42;21.55;;;-1.00;99.90;;;;;;5075393;28;20051;-76
2023/12/01 07:40:13;;;;;;;43.30;20.70;;;-1.10;99.90;;;;;;5073305;28;20080;-75
2023/12/01 07:42:42;;;;;;;38.47;20.90;;;-1.10;99.90;;;;;;5075168;28;20040;-75
2023/12/01 07:45:08;;;;;;;39.63;20.38;;;-1.10;99.90;;;;;;5073854;28;20064;-77
2023/12/01 07:47:34;;;;;;;41.67;20.98;;;-1.10;99.90;;;;;;5074992;28;20118;-74
2023/12/01 07:50:01;;;;;;;41.13;22.03;;;-1.10;99.90;;;;;;5075058;28;20049;-74
2023/12/01 07:52:26;;;;;;;47.67;21.95;;;-1.00;99.90;;;;;;5073431;28;20036;-76
2023/12/01 07:54:52;;;;;;;41.10;20.40;;;-1.10;99.90;;;;;;5074967;28;20067;-76
2023/12/01 07:57:18;;;;;;;47.43;22.37;;;-1.10;99.90;;;;;;5074621;28;20496;-75
2023/12/01 07:59:44;;;;;;;42.40;20.80;;;-1.20;99.90;;;;;;5073941;28;20052;-75
2023/12/01 08:02:09;;;;;;;38.87;21.17;;;-1.20;99.90;;;;;;5074299;28;20045;-75
2023/12/01 08:04:35;;;;;;;47.17;23.33;;;-1.30;99.90;;;;;;5056907;28;20047;-74
2023/12/01 08:07:02;;;;;;;48.50;23.30;;;-1.20;99.90;;;;;;5074675;28;20040;-75
2023/12/01 08:09:31;;;;;;;50.22;22.85;;;-1.30;99.90;;;;;;5074286;28;20053;-75
2023/12/01 08:11:58;;;;;;;64.07;25.17;;;-1.20;99.90;;;;;;5073546;28;20056;-75
2023/12/01 08:14:25;;;;;;;51.08;23.38;;;-1.20;99.90;;;;;;5074186;28;20135;-76
2023/12/01 08:16:51;;;;;;;48.20;22.98;;;-1.20;99.90;;;;;;5074402;28;20084;-76
2023/12/01 08:19:17;;;;;;;50.13;23.00;;;-1.20;99.90;;;;;;5074104;28;20084;-76
2023/12/01 08:21:44;;;;;;;53.28;24.33;;;-1.20;99.90;;;;;;5074171;28;20170;-76
2023/12/01 08:24:12;;;;;;;49.97;23.40;;;-1.20;99.90;;;;;;5073895;28;20053;-76
2023/12/01 08:26:38;;;;;;;38.95;21.60;;;-1.20;99.90;;;;;;5074297;28;20057;-76
2023/12/01 08:29:04;;;;;;;57.67;24.57;;;-1.10;99.90;;;;;;5074053;28;20096;-76
2023/12/01 08:31:30;;;;;;;42.45;22.08;;;-1.10;99.90;;;;;;5073720;28;20040;-76
2023/12/01 08:33:57;;;;;;;44.45;21.38;;;-1.00;99.90;;;;;;5074174;28;20066;-76
2023/12/01 08:36:23;;;;;;;49.08;24.13;;;-1.10;99.90;;;;;;5072390;28;20097;-76
2023/12/01 08:38:48;;;;;;;59.17;23.85;;;-1.20;99.90;;;;;;5072947;28;20044;-75
2023/12/01 08:41:14;;;;;;;48.03;23.43;;;-1.20;99.90;;;;;;5072392;28;20121;-77
2023/12/01 08:43:40;;;;;;;48.30;22.97;;;-1.20;99.90;;;;;;5073964;28;20048;-76
2023/12/01 08:46:06;;;;;;;51.57;24.70;;;-1.30;99.90;;;;;;5056235;28;20084;-76
2023/12/01 08:48:32;;;;;;;52.22;24.42;;;-1.20;99.90;;;;;;5072218;28;20126;-74
2023/12/01 08:50:57;;;;;;;61.43;25.47;;;-1.20;99.90;;;;;;5073161;28;20087;-75
2023/12/01 08:53:24;;;;;;;56.43;25.13;;;-1.00;99.90;;;;;;5071944;28;20125;-76
2023/12/01 08:55:52;;;;;;;49.67;25.92;;;-1.10;99.90;;;;;;5073738;28;20044;-75
2023/12/01 08:58:18;;;;;;;55.17;25.00;;;-1.00;99.90;;;;;;5072835;28;20060;-76
2023/12/01 09:00:44;;;;;;;45.53;23.57;;;-1.00;99.90;;;;;;5071901;28;20496;-76
2023/12/01 09:03:10;;;;;;;49.10;24.30;;;-1.00;99.90;;;;;;5073426;28;20086;-79
2023/12/01 09:05:35;;;;;;;43.37;24.03;;;-1.00;99.90;;;;;;5073271;28;20135;-76
2023/12/01 09:08:05;;;;;;;45.03;24.03;;;-1.10;99.90;;;;;;5072660;28;20053;-75
2023/12/01 09:10:32;;;;;;;50.03;24.90;;;-1.10;99.90;;;;;;5073037;28;20424;-76
2023/12/01 09:12:58;;;;;;;79.68;37.80;;;-0.90;99.90;;;;;;5073383;28;20084;-76
2023/12/01 09:15:23;;;;;;;112.30;48.40;;;-1.00;99.90;;;;;;5073118;28;20076;-76
2023/12/01 09:17:50;;;;;;;91.33;40.57;;;-1.00;99.90;;;;;;5073301;28;20498;-76
2023/12/01 09:20:15;;;;;;;49.38;26.00;;;-1.10;99.90;;;;;;5073072;28;20044;-76
2023/12/01 09:22:41;;;;;;;43.83;23.53;;;-1.20;99.90;;;;;;5072158;28;20442;-75
2023/12/01 09:25:07;;;;;;;45.30;23.83;;;-1.10;99.90;;;;;;5073221;28;20103;-75
2023/12/01 09:27:33;;;;;;;47.60;22.20;;;-1.10;99.90;;;;;;5072960;28;20048;-75
2023/12/01 09:29:59;;;;;;;47.13;22.37;;;-1.00;99.90;;;;;;5071980;28;20053;-76
2023/12/01 09:32:24;;;;;;;39.00;20.80;;;-1.00;99.90;;;;;;5071724;28;20079;-76
2023/12/01 09:34:50;;;;;;;37.17;19.33;;;-0.90;99.90;;;;;;5073237;28;20076;-76
2023/12/01 09:37:16;;;;;;;40.23;20.13;;;-0.90;99.90;;;;;;5072831;28;20048;-77
2023/12/01 09:39:42;;;;;;;38.57;19.80;;;-1.00;99.90;;;;;;5073010;28;20048;-76
2023/12/01 09:42:08;;;;;;;41.43;20.10;;;-0.90;99.90;;;;;;5073026;28;20335;-75
2023/12/01 09:44:37;;;;;;;39.30;20.77;;;-0.90;99.90;;;;;;5072820;28;20047;-77
2023/12/01 09:47:10;;;;;;;33.60;17.85;;;-0.90;99.90;;;;;;5072981;28;20096;-76
2023/12/01 09:49:38;;;;;;;32.05;18.30;;;-0.90;99.90;;;;;;5071705;28;20097;-77
2023/12/01 09:52:04;;;;;;;37.35;18.85;;;-0.90;99.90;;;;;;5072941;28;20127;-77
2023/12/01 09:54:30;;;;;;;34.33;19.20;;;-0.90;99.90;;;;;;5072604;28;20052;-76
2023/12/01 09:56:57;;;;;;;35.78;18.38;;;-0.90;99.90;;;;;;5072630;28;20064;-76
2023/12/01 09:59:23;;;;;;;34.42;18.85;;;-0.80;99.90;;;;;;5072566;28;20091;-77
2023/12/01 10:01:51;;;;;;;38.30;18.23;;;-0.80;99.90;;;;;;5072296;28;20049;-76
2023/12/01 10:04:17;;;;;;;32.35;17.40;;;-0.80;99.90;;;;;;5076657;28;20052;-79
2023/12/01 10:06:43;;;;;;;34.13;18.57;;;-0.80;99.90;;;;;;5076970;28;20127;-73
2023/12/01 10:09:12;;;;;;;31.80;18.00;;;-0.80;99.90;;;;;;5076881;28;20052;-74
2023/12/01 10:11:38;;;;;;;33.13;18.08;;;-0.80;99.90;;;;;;5076581;28;20040;-76
2023/12/01 10:14:09;;;;;;;31.90;18.23;;;-0.80;99.90;;;;;;5075600;28;20045;-76
2023/12/01 10:16:35;;;;;;;32.40;18.27;;;-0.70;99.90;;;;;;5076161;28;20350;-76
2023/12/01 10:19:05;;;;;;;28.55;16.90;;;-0.70;99.90;;;;;;5075189;28;20048;-76
2023/12/01 10:21:45;;;;;;;30.40;16.42;;;-0.70;99.90;;;;;;5073837;28;20119;-76
2023/12/01 10:24:21;;;;;;;30.70;16.55;;;-0.70;99.90;;;;;;5072800;28;20094;-76
2023/12/01 10:26:49;;;;;;;31.30;16.67;;;-0.60;99.90;;;;;;5072942;28;20429;-77
2023/12/01 10:29:33;;;;;;;29.50;15.63;;;-0.60;99.90;;;;;;5076137;28;20033;-76
2023/12/01 10:32:00;;;;;;;26.33;15.35;;;-0.60;99.90;;;;;;5080946;28;20132;-78
2023/12/01 10:34:25;;;;;;;30.92;16.75;;;-0.60;99.90;;;;;;5075656;28;20094;-78
2023/12/01 10:36:55;;;;;;;32.70;17.73;;;-0.60;99.90;;;;;;5074914;28;20052;-77
2023/12/01 10:39:25;;;;;;;28.15;16.50;;;-0.50;99.90;;;;;;5076491;28;20452;-80
2023/12/01 10:41:54;;;;;;;27.42;16.02;;;-0.60;99.90;;;;;;5075448;28;20095;-77
2023/12/01 10:44:28;;;;;;;26.38;15.60;;;-0.50;99.90;;;;;;5076241;28;20044;-77
2023/12/01 10:46:55;;;;;;;26.88;15.80;;;-0.50;99.90;;;;;;5076167;28;20095;-77
2023/12/01 10:49:21;;;;;;;29.02;16.17;;;-0.50;99.90;;;;;;5074987;28;20048;-77
2023/12/01 10:51:52;;;;;;;28.42;15.93;;;-0.50;99.90;;;;;;5076048;28;20037;-77
2023/12/01 10:54:21;;;;;;;31.33;17.08;;;-0.50;99.90;;;;;;5076076;28;20138;-77
2023/12/01 10:57:09;;;;;;;27.70;15.27;;;-0.50;99.90;;;;;;5074888;28;20102;-78
2023/12/01 10:59:37;;;;;;;31.13;17.63;;;-0.50;99.90;;;;;;5075674;28;20045;-76
2023/12/01 11:02:05;;;;;;;31.45;17.08;;;-0.50;99.90;;;;;;5076054;28;20127;-76
2023/12/01 11:04:32;;;;;;;26.15;15.50;;;-0.50;99.90;;;;;;5074440;28;20124;-78
2023/12/01 11:07:07;;;;;;;26.95;15.32;;;-0.50;99.90;;;;;;5075909;28;20058;-77
2023/12/01 11:10:11;;;;;;;28.23;16.50;;;-0.50;99.90;;;;;;5074488;28;20066;-79
2023/12/01 11:13:04;;;;;;;24.73;14.98;;;-0.50;99.90;;;;;;5060861;28;20150;-77
2023/12/01 11:15:33;;;;;;;30.98;16.92;;;-0.50;99.90;;;;;;5074688;28;20040;-77
2023/12/01 11:17:59;;;;;;;26.55;15.35;;;-0.40;99.90;;;;;;5075664;28;20487;-77
2023/12/01 11:20:35;;;;;;;29.50;17.40;;;-0.40;99.90;;;;;;5075283;28;20127;-83
2023/12/01 11:23:12;;;;;;;29.77;16.38;;;-0.40;99.90;;;;;;5057538;28;20113;-77
2023/12/01 11:25:46;;;;;;;27.15;16.08;;;-0.30;99.90;;;;;;5075202;28;20058;-79
2023/12/01 11:31:13;;;;;;;25.10;15.23;;;-0.40;99.90;;;;;;5074700;28;20075;-79
2023/12/01 11:33:40;;;;;;;27.60;16.33;;;-0.30;99.90;;;;;;5057417;28;20052;-80
2023/12/01 11:36:32;;;;;;;30.58;17.65;;;-0.30;99.90;;;;;;5057660;28;20122;-81
2023/12/01 11:39:08;;;;;;;27.23;16.42;;;-0.30;99.90;;;;;;5074260;28;20087;-85
2023/12/01 11:41:34;;;;;;;27.88;16.45;;;-0.30;99.90;;;;;;5057087;28;20048;-80
2023/12/01 11:44:07;;;;;;;30.33;16.88;;;-0.20;99.90;;;;;;5074815;28;20503;-77
2023/12/01 11:46:34;;;;;;;28.13;17.10;;;-0.20;99.90;;;;;;5073810;28;20106;-77
2023/12/01 11:48:59;;;;;;;27.77;16.45;;;-0.20;99.90;;;;;;5057231;28;20476;-77
2023/12/01 11:51:26;;;;;;;26.83;15.60;;;-0.10;99.90;;;;;;5074010;28;20040;-76
2023/12/01 11:53:59;;;;;;;25.60;15.65;;;-0.10;99.90;;;;;;5074524;28;20051;-76
2023/12/01 11:56:28;;;;;;;24.73;14.93;;;-0.10;99.90;;;;;;5074723;28;20084;-77
2023/12/01 11:58:55;;;;;;;27.58;16.80;;;-0.10;99.90;;;;;;5073143;28;20049;-77
2023/12/01 12:01:24;;;;;;;25.98;15.98;;;0.00;99.90;;;;;;5074607;28;20037;-77
2023/12/01 12:03:57;;;;;;;25.15;15.00;;;0.00;99.90;;;;;;5074341;28;20044;-78
2023/12/01 12:06:24;;;;;;;22.88;14.48;;;0.00;99.90;;;;;;5075097;28;20084;-78
2023/12/01 12:08:52;;;;;;;23.90;14.60;;;0.00;99.90;;;;;;5075103;28;20159;-77
2023/12/01 12:11:18;;;;;;;27.30;17.30;;;0.00;99.90;;;;;;5074486;28;20049;-80
2023/12/01 12:13:52;;;;;;;28.35;17.80;;;0.00;99.90;;;;;;5073061;28;20044;-80
2023/12/01 12:16:20;;;;;;;30.73;17.65;;;0.00;99.90;;;;;;5056889;28;20056;-79
2023/12/01 12:18:48;;;;;;;25.60;16.30;;;-0.10;99.90;;;;;;5073180;28;20048;-80
2023/12/01 12:21:15;;;;;;;29.55;17.63;;;-0.10;99.90;;;;;;5073148;28;20083;-79
2023/12/01 12:23:40;;;;;;;25.67;16.40;;;-0.10;99.90;;;;;;5074076;28;20052;-80
2023/12/01 12:26:17;;;;;;;26.87;15.23;;;0.00;99.90;;;;;;5090247;28;20067;-78
2023/12/01 12:28:47;;;;;;;25.38;16.48;;;0.10;99.90;;;;;;5073064;28;20362;-78
2023/12/01 12:31:14;;;;;;;28.00;17.20;;;0.10;99.90;;;;;;5074220;28;20135;-78
2023/12/01 12:33:40;;;;;;;25.60;16.33;;;0.10;99.90;;;;;;5072919;28;20090;-76
2023/12/01 12:36:06;;;;;;;25.60;16.83;;;0.10;99.90;;;;;;5072906;28;20056;-78
2023/12/01 12:38:35;;;;;;;23.20;15.25;;;0.10;99.90;;;;;;5076553;28;20075;-78